createdAt,value
2022-10-19T00:01:05.466Z,46.37
2022-10-19T00:03:34.036Z,46.60
2022-10-19T00:06:02.187Z,46.70
2022-10-19T00:08:31.559Z,47.47
2022-10-19T00:11:02.241Z,46.93
2022-10-19T00:13:30.380Z,45.33
2022-10-19T00:15:58.343Z,44.57
2022-10-19T00:18:26.324Z,44.30
2022-10-19T00:20:54.341Z,44.80
2022-10-19T00:23:22.950Z,45.17
2022-10-19T00:25:58.684Z,45.20
2022-10-19T00:28:26.783Z,46.13
2022-10-19T00:30:54.775Z,45.57
2022-10-19T00:33:22.916Z,46.20
2022-10-19T00:35:51.847Z,46.13
2022-10-19T00:38:21.301Z,46.90
2022-10-19T00:40:50.129Z,47.40
2022-10-19T00:43:21.716Z,47.40
2022-10-19T00:45:50.156Z,47.63
2022-10-19T00:48:22.855Z,47.57
2022-10-19T00:50:55.367Z,47.60
2022-10-19T00:53:27.145Z,48.07
2022-10-19T00:55:55.566Z,48.33
2022-10-19T00:58:25.294Z,48.90
2022-10-19T01:00:53.806Z,49.47
2022-10-19T01:03:22.615Z,50.60
2022-10-19T01:05:50.934Z,50.77
2022-10-19T01:08:19.256Z,50.93
2022-10-19T01:10:55.365Z,52.07
2022-10-19T01:13:43.777Z,52.60
2022-10-19T01:16:19.246Z,53.40
2022-10-19T01:18:54.197Z,52.53
2022-10-19T01:21:24.727Z,52.57
2022-10-19T01:24:27.501Z,53.17
2022-10-19T01:27:20.763Z,52.90
2022-10-19T01:30:07.579Z,52.97
2022-10-19T01:32:46.905Z,53.30
2022-10-19T01:35:24.645Z,52.63
2022-10-19T01:38:02.037Z,52.97
2022-10-19T01:40:36.960Z,53.23
2022-10-19T01:43:13.161Z,53.20
2022-10-19T01:45:48.877Z,53.83
2022-10-19T01:48:20.174Z,53.20
2022-10-19T01:50:53.547Z,54.23
2022-10-19T01:53:22.742Z,54.03
2022-10-19T01:55:53.430Z,55.80
2022-10-19T01:58:28.867Z,56.10
2022-10-19T02:01:01.720Z,56.97
2022-10-19T02:03:30.516Z,58.30
2022-10-19T02:06:00.637Z,58.80
2022-10-19T02:08:31.538Z,59.17
2022-10-19T02:11:01.032Z,60.50
2022-10-19T02:13:30.468Z,60.63
2022-10-19T02:16:04.376Z,60.23
2022-10-19T02:18:37.882Z,61.40
2022-10-19T02:21:07.343Z,62.63
2022-10-19T02:23:35.511Z,63.60
2022-10-19T02:26:03.928Z,64.77
2022-10-19T02:28:32.568Z,66.30
2022-10-19T02:31:02.394Z,66.70
2022-10-19T02:33:31.040Z,68.57
2022-10-19T02:36:00.805Z,68.83
2022-10-19T02:38:29.303Z,69.10
2022-10-19T02:41:04.388Z,68.30
2022-10-19T02:43:35.896Z,68.63
2022-10-19T02:46:08.697Z,68.77
2022-10-19T02:48:39.176Z,70.57
2022-10-19T02:51:07.530Z,71.77
2022-10-19T02:53:35.548Z,72.60
2022-10-19T02:56:03.490Z,72.33
2022-10-19T02:58:31.437Z,72.03
2022-10-19T03:00:59.490Z,73.57
2022-10-19T03:03:28.839Z,73.27
2022-10-19T03:05:56.864Z,72.40
2022-10-19T03:08:24.921Z,73.37
2022-10-19T03:10:52.868Z,73.50
2022-10-19T03:13:20.878Z,74.23
2022-10-19T03:15:49.129Z,75.20
2022-10-19T03:18:17.228Z,74.13
2022-10-19T03:20:46.733Z,75.23
2022-10-19T03:23:14.901Z,76.67
2022-10-19T03:25:42.820Z,77.00
2022-10-19T03:28:10.922Z,77.50
2022-10-19T03:30:38.854Z,79.57
2022-10-19T03:33:06.802Z,77.37
2022-10-19T03:35:34.876Z,78.27
2022-10-19T03:38:04.219Z,79.80
2022-10-19T03:40:32.417Z,79.60
2022-10-19T03:43:00.372Z,81.77
2022-10-19T03:45:28.436Z,83.10
2022-10-19T03:47:56.389Z,82.60
2022-10-19T03:50:24.393Z,84.07
2022-10-19T03:52:52.403Z,81.90
2022-10-19T03:55:21.745Z,82.90
2022-10-19T03:57:49.739Z,82.53
2022-10-19T04:00:17.729Z,81.60
2022-10-19T04:02:45.714Z,82.97
2022-10-19T04:05:13.797Z,82.83
2022-10-19T04:07:41.811Z,80.47
2022-10-19T04:10:10.045Z,80.20
2022-10-19T04:12:39.440Z,77.70
2022-10-19T04:15:08.326Z,77.13
2022-10-19T04:17:36.483Z,76.90
2022-10-19T04:20:05.230Z,76.47
2022-10-19T04:22:33.257Z,77.60
2022-10-19T04:25:01.330Z,78.67
2022-10-19T04:27:29.267Z,78.50
2022-10-19T04:29:58.627Z,77.07
2022-10-19T04:32:26.610Z,75.33
2022-10-19T04:34:54.579Z,73.03
2022-10-19T04:37:22.614Z,74.57
2022-10-19T04:39:50.549Z,74.37
2022-10-19T04:42:18.554Z,73.73
2022-10-19T04:44:46.632Z,74.13
2022-10-19T04:47:15.928Z,71.30
2022-10-19T04:49:43.941Z,69.70
2022-10-19T04:52:11.865Z,69.47
2022-10-19T04:54:39.815Z,69.10
2022-10-19T04:57:07.812Z,65.67
2022-10-19T04:59:36.004Z,63.83
2022-10-19T05:02:03.981Z,64.93
2022-10-19T05:04:33.268Z,66.77
2022-10-19T05:07:01.221Z,67.70
2022-10-19T05:09:29.129Z,65.67
2022-10-19T05:11:57.145Z,65.90
2022-10-19T05:14:25.589Z,64.57
2022-10-19T05:16:53.539Z,62.60
2022-10-19T05:19:21.487Z,62.23
2022-10-19T05:21:50.890Z,61.00
2022-10-19T05:24:18.838Z,59.30
2022-10-19T05:26:46.827Z,57.90
2022-10-19T05:29:15.231Z,59.13
2022-10-19T05:31:43.604Z,57.87
2022-10-19T05:34:11.647Z,57.40
2022-10-19T05:36:40.946Z,56.17
2022-10-19T05:39:14.761Z,56.80
2022-10-19T05:41:44.458Z,56.03
2022-10-19T05:44:15.882Z,53.83
2022-10-19T05:46:45.596Z,51.93
2022-10-19T05:49:14.399Z,48.03
2022-10-19T05:51:42.362Z,47.83
2022-10-19T05:54:15.383Z,47.87
2022-10-19T05:56:43.515Z,49.53
2022-10-19T05:59:15.878Z,48.17
2022-10-19T06:01:43.983Z,49.20
2022-10-19T06:04:14.099Z,50.43
2022-10-19T06:06:42.969Z,49.53
2022-10-19T06:09:12.762Z,49.10
2022-10-19T06:11:42.682Z,45.13
2022-10-19T06:14:14.638Z,45.47
2022-10-19T06:16:42.878Z,44.87
2022-10-19T06:19:10.874Z,44.47
2022-10-19T06:21:41.837Z,42.43
2022-10-19T06:24:14.576Z,41.50
2022-10-19T06:26:42.698Z,39.53
2022-10-19T06:29:10.860Z,37.43
2022-10-19T06:31:38.983Z,34.13
2022-10-19T06:34:07.543Z,33.70
2022-10-19T06:36:35.888Z,32.10
2022-10-19T06:39:04.491Z,32.33
2022-10-19T06:41:34.285Z,32.60
2022-10-19T06:44:18.804Z,33.67
2022-10-19T06:46:46.730Z,33.37
2022-10-19T06:49:15.794Z,33.13
2022-10-19T06:51:43.719Z,32.77
2022-10-19T06:54:11.753Z,33.03
2022-10-19T06:56:41.216Z,32.40
2022-10-19T06:59:09.290Z,32.60
2022-10-19T07:01:37.342Z,32.33
2022-10-19T07:04:05.597Z,31.27
2022-10-19T07:06:33.577Z,30.90
2022-10-19T07:09:02.717Z,29.23
2022-10-19T07:11:30.865Z,27.37
2022-10-19T07:14:00.184Z,23.93
2022-10-19T07:16:28.153Z,23.30
2022-10-19T07:18:56.112Z,22.50
2022-10-19T07:21:24.558Z,21.00
2022-10-19T07:23:52.582Z,20.20
2022-10-19T07:26:23.995Z,20.07
2022-10-19T07:28:52.421Z,18.93
2022-10-19T07:31:24.313Z,17.83
2022-10-19T07:33:54.846Z,18.30
2022-10-19T07:36:23.067Z,18.30
2022-10-19T07:38:51.206Z,20.17
2022-10-19T07:41:20.829Z,24.97
2022-10-19T07:43:49.695Z,28.03
2022-10-19T07:46:20.521Z,26.43
2022-10-19T07:48:50.615Z,26.27
2022-10-19T07:51:20.528Z,25.97
2022-10-19T07:53:48.814Z,25.63
2022-10-19T07:56:18.479Z,23.97
2022-10-19T07:58:46.775Z,23.70
2022-10-19T08:01:16.569Z,22.90
2022-10-19T08:06:35.231Z,26.07
2022-10-19T08:09:03.697Z,26.07
2022-10-19T08:11:34.340Z,26.90
2022-10-19T08:14:03.633Z,28.40
2022-10-19T08:16:34.294Z,28.67
2022-10-19T08:19:04.025Z,29.63
2022-10-19T08:21:32.311Z,30.70
2022-10-19T08:24:01.843Z,26.33
2022-10-19T08:26:30.753Z,23.30
2022-10-19T08:29:02.209Z,22.17
2022-10-19T08:31:30.432Z,22.97
2022-10-19T08:33:58.689Z,21.53
2022-10-19T08:36:31.253Z,20.97
2022-10-19T08:39:01.351Z,20.83
2022-10-19T08:41:35.047Z,18.83
2022-10-19T08:44:25.878Z,13.97
2022-10-19T08:47:03.394Z,13.00
2022-10-19T08:49:33.360Z,12.43
2022-10-19T08:52:05.699Z,11.67
2022-10-19T08:54:42.465Z,11.27
2022-10-19T08:57:21.261Z,11.50
2022-10-19T08:59:58.425Z,11.47
2022-10-19T09:02:43.676Z,10.87
2022-10-19T09:05:17.202Z,9.90
2022-10-19T09:07:47.632Z,9.87
2022-10-19T09:10:24.439Z,9.70
2022-10-19T09:12:58.899Z,10.33
2022-10-19T09:15:29.208Z,10.17
2022-10-19T09:17:57.283Z,9.83
2022-10-19T09:20:32.744Z,10.23
2022-10-19T09:23:08.636Z,9.03
2022-10-19T09:25:41.062Z,8.53
2022-10-19T09:28:33.904Z,6.27
2022-10-19T09:31:13.373Z,5.80
2022-10-19T09:33:58.339Z,5.67
2022-10-19T09:36:50.219Z,4.93
2022-10-19T09:39:19.118Z,3.80
2022-10-19T09:41:52.907Z,3.20
2022-10-19T09:44:21.326Z,3.20
2022-10-19T09:46:54.042Z,3.00
2022-10-19T09:49:40.764Z,3.27
2022-10-19T09:52:24.407Z,3.40
2022-10-19T09:55:02.084Z,3.70
2022-10-19T09:57:32.460Z,4.03
2022-10-19T10:00:00.789Z,3.60
2022-10-19T10:02:33.676Z,3.77
2022-10-19T10:05:07.479Z,4.10
2022-10-19T10:07:38.536Z,3.67
2022-10-19T10:10:24.593Z,4.00
2022-10-19T10:12:56.703Z,4.10
2022-10-19T10:15:27.978Z,3.70
2022-10-19T10:17:57.500Z,3.80
2022-10-19T10:20:29.555Z,3.47
2022-10-19T10:23:00.402Z,3.60
2022-10-19T10:25:32.106Z,3.30
2022-10-19T10:28:04.702Z,3.87
2022-10-19T10:30:37.823Z,3.10
2022-10-19T10:33:13.398Z,2.63
2022-10-19T10:35:58.001Z,2.60
2022-10-19T10:38:29.122Z,3.57
2022-10-19T10:41:00.974Z,2.80
2022-10-19T10:43:32.974Z,2.63
2022-10-19T10:46:05.314Z,2.93
2022-10-19T10:48:37.360Z,3.13
2022-10-19T10:51:19.762Z,3.10
2022-10-19T10:53:48.438Z,3.03
2022-10-19T10:56:27.730Z,7.83
2022-10-19T10:59:01.339Z,3.90
2022-10-19T11:01:38.004Z,3.67
2022-10-19T11:04:09.885Z,3.63
2022-10-19T11:06:44.512Z,3.90
2022-10-19T11:09:22.043Z,3.37
2022-10-19T11:11:55.966Z,3.00
2022-10-19T11:14:31.663Z,3.30
2022-10-19T11:17:05.428Z,3.20
2022-10-19T11:19:36.854Z,3.20
2022-10-19T11:22:23.582Z,2.90
2022-10-19T11:25:21.210Z,3.60
2022-10-19T11:28:00.892Z,2.20
2022-10-19T11:30:33.882Z,2.97
2022-10-19T11:33:07.425Z,2.30
2022-10-19T11:35:50.348Z,2.70
2022-10-19T11:38:30.394Z,3.30
2022-10-19T11:41:24.642Z,2.73
2022-10-19T11:44:07.042Z,3.50
2022-10-19T11:46:45.704Z,2.90
2022-10-19T11:49:23.264Z,3.30
2022-10-19T11:51:57.637Z,2.80
2022-10-19T11:54:45.653Z,2.60
2022-10-19T11:57:17.326Z,2.60
2022-10-19T12:00:14.079Z,2.40
2022-10-19T12:03:23.768Z,2.60
2022-10-19T12:06:03.318Z,2.67
2022-10-19T12:08:46.575Z,2.83
2022-10-19T12:11:29.562Z,4.67
2022-10-19T12:14:01.954Z,2.77
2022-10-19T12:16:36.779Z,2.70
2022-10-19T12:19:08.014Z,2.70
2022-10-19T12:21:39.644Z,2.73
2022-10-19T12:24:14.908Z,3.30
2022-10-19T12:26:45.721Z,3.00
2022-10-19T12:29:17.219Z,3.30
2022-10-19T12:31:46.035Z,2.70
2022-10-19T12:34:36.887Z,3.47
2022-10-19T12:37:09.652Z,2.83
2022-10-19T12:39:44.425Z,2.70
2022-10-19T12:42:23.507Z,3.53
2022-10-19T12:45:26.229Z,2.87
2022-10-19T12:48:24.673Z,3.00
2022-10-19T12:51:06.476Z,3.30
2022-10-19T12:53:38.178Z,3.10
2022-10-19T12:56:08.227Z,3.30
2022-10-19T12:58:47.950Z,3.40
2022-10-19T13:01:20.293Z,3.30
2022-10-19T13:03:51.126Z,3.60
2022-10-19T13:06:33.068Z,3.40
2022-10-19T13:09:04.530Z,3.50
2022-10-19T13:11:32.793Z,3.53
2022-10-19T13:14:07.396Z,4.33
2022-10-19T13:17:06.539Z,3.50
2022-10-19T13:19:34.667Z,4.50
2022-10-19T13:22:29.383Z,4.20
2022-10-19T13:25:30.065Z,4.07
2022-10-19T13:28:45.998Z,4.40
2022-10-19T13:31:30.063Z,4.40
2022-10-19T13:33:58.731Z,3.97
2022-10-19T13:36:27.555Z,4.07
2022-10-19T13:39:15.116Z,4.20
2022-10-19T13:41:54.546Z,4.00
2022-10-19T13:44:30.915Z,4.37
2022-10-19T13:47:33.216Z,4.40
2022-10-19T13:50:16.393Z,4.50
2022-10-19T13:53:06.774Z,4.77
2022-10-19T13:56:06.151Z,5.00
2022-10-19T13:59:07.796Z,4.70
2022-10-19T14:01:49.462Z,4.40
2022-10-19T14:04:36.146Z,4.67
2022-10-19T14:07:13.500Z,4.60
2022-10-19T14:10:09.115Z,4.73
2022-10-19T14:12:42.665Z,5.47
2022-10-19T14:15:22.523Z,4.70
2022-10-19T14:17:51.092Z,5.73
2022-10-19T14:20:31.508Z,5.17
2022-10-19T14:23:00.159Z,5.03
2022-10-19T14:25:29.761Z,4.80
2022-10-19T14:28:02.056Z,4.80
2022-10-19T14:30:32.529Z,4.80
2022-10-19T14:33:02.755Z,5.23
2022-10-19T14:35:34.421Z,5.30
2022-10-19T14:38:03.970Z,6.10
2022-10-19T14:40:33.722Z,5.63
2022-10-19T14:43:19.340Z,5.13
2022-10-19T14:46:04.833Z,5.47
2022-10-19T14:48:33.728Z,5.50
2022-10-19T14:51:01.920Z,5.33
2022-10-19T14:53:38.043Z,5.37
2022-10-19T14:56:10.832Z,5.40
2022-10-19T14:58:48.452Z,5.60
2022-10-19T15:01:18.641Z,5.60
2022-10-19T15:03:48.046Z,5.77
2022-10-19T15:06:20.079Z,5.63
2022-10-19T15:08:51.934Z,5.30
2022-10-19T15:11:27.845Z,5.50
2022-10-19T15:14:04.679Z,5.90
2022-10-19T15:16:53.036Z,6.30
2022-10-19T15:19:27.257Z,7.80
2022-10-19T15:22:08.454Z,7.47
2022-10-19T15:24:37.985Z,8.57
2022-10-19T15:27:19.366Z,8.07
2022-10-19T15:29:57.552Z,9.57
2022-10-19T15:32:28.288Z,9.20
2022-10-19T15:34:56.746Z,9.20
2022-10-19T15:39:54.827Z,9.47
2022-10-19T15:42:38.866Z,9.87
2022-10-19T15:45:36.351Z,9.30
2022-10-19T15:48:26.575Z,9.20
2022-10-19T15:50:56.115Z,9.33
2022-10-19T15:53:24.386Z,8.90
2022-10-19T15:55:52.459Z,8.33
2022-10-19T15:58:21.505Z,7.80
2022-10-19T16:00:50.888Z,7.70
2022-10-19T16:03:18.853Z,7.73
2022-10-19T16:05:47.255Z,6.63
2022-10-19T16:08:15.343Z,6.50
2022-10-19T16:10:43.323Z,6.23
2022-10-19T16:13:11.291Z,6.70
2022-10-19T16:15:39.249Z,6.33
2022-10-19T16:18:12.407Z,6.50
2022-10-19T16:20:40.422Z,6.57
2022-10-19T16:23:08.621Z,6.80
2022-10-19T16:25:36.893Z,6.53
2022-10-19T16:28:04.977Z,7.00
2022-10-19T16:30:32.946Z,6.60
2022-10-19T16:33:00.949Z,7.07
2022-10-19T16:35:30.267Z,7.00
2022-10-19T16:37:59.096Z,7.70
2022-10-19T16:40:27.082Z,7.20
2022-10-19T16:42:58.789Z,7.40
2022-10-19T16:45:26.834Z,7.90
2022-10-19T16:47:54.817Z,8.70
2022-10-19T16:50:22.795Z,8.87
2022-10-19T16:53:05.277Z,9.07
2022-10-19T16:55:33.281Z,9.80
2022-10-19T16:58:01.225Z,9.90
2022-10-19T17:00:29.244Z,11.43
2022-10-19T17:02:57.315Z,11.93
2022-10-19T17:05:25.429Z,12.70
2022-10-19T17:07:54.836Z,14.13
2022-10-19T17:10:22.823Z,16.13
2022-10-19T17:12:50.966Z,16.60
2022-10-19T17:18:08.554Z,19.30
2022-10-19T17:20:36.582Z,19.47
2022-10-19T17:23:05.949Z,20.03
2022-10-19T17:25:33.988Z,20.20
2022-10-19T17:28:02.049Z,20.63
2022-10-19T17:30:30.027Z,21.50
2022-10-19T17:32:58.017Z,22.17
2022-10-19T17:35:25.944Z,23.23
2022-10-19T17:37:53.946Z,23.40
2022-10-19T17:40:23.273Z,23.17
2022-10-19T17:42:51.276Z,23.47
2022-10-19T17:45:19.229Z,23.10
2022-10-19T17:47:47.201Z,23.87
2022-10-19T17:50:15.192Z,24.67
2022-10-19T17:52:43.251Z,23.90
2022-10-19T17:55:13.202Z,23.20
2022-10-19T17:57:42.934Z,24.43
2022-10-19T18:00:11.754Z,25.93
2022-10-19T18:02:45.559Z,26.40
2022-10-19T18:05:13.774Z,27.03
2022-10-19T18:07:44.545Z,27.30
2022-10-19T18:10:13.637Z,27.63
2022-10-19T18:12:42.943Z,28.40
2022-10-19T18:15:11.130Z,28.17
2022-10-19T18:17:39.394Z,28.10
2022-10-19T18:20:08.949Z,28.40
2022-10-19T18:22:37.017Z,27.57
2022-10-19T18:25:05.628Z,28.10
2022-10-19T18:27:33.965Z,27.50
2022-10-19T18:30:03.633Z,27.33
2022-10-19T18:32:31.699Z,27.50
2022-10-19T18:34:59.766Z,27.70
2022-10-19T18:37:27.770Z,27.53
2022-10-19T18:39:55.731Z,28.77
2022-10-19T18:42:23.716Z,28.27
2022-10-19T18:44:51.711Z,28.43
2022-10-19T18:47:21.078Z,28.03
2022-10-19T18:49:49.167Z,28.00
2022-10-19T18:52:17.112Z,28.20
2022-10-19T18:54:45.074Z,28.17
2022-10-19T18:57:13.034Z,28.23
2022-10-19T18:59:41.014Z,27.63
2022-10-19T19:02:17.112Z,27.93
2022-10-19T19:04:52.451Z,28.23
2022-10-19T19:07:20.540Z,29.10
2022-10-19T19:09:48.578Z,29.43
2022-10-19T19:12:16.566Z,30.63
2022-10-19T19:14:45.232Z,31.57
2022-10-19T19:17:13.255Z,31.13
2022-10-19T19:19:41.918Z,31.43
2022-10-19T19:22:11.305Z,31.93
2022-10-19T19:24:39.266Z,32.17
2022-10-19T19:27:07.305Z,31.87
2022-10-19T19:29:35.482Z,32.50
2022-10-19T19:32:04.549Z,32.13
2022-10-19T19:34:32.485Z,33.17
2022-10-19T19:37:00.525Z,32.27
2022-10-19T19:39:29.944Z,33.00
2022-10-19T19:41:57.935Z,32.20
2022-10-19T19:44:29.583Z,32.97
2022-10-19T19:46:57.707Z,32.53
2022-10-19T19:49:26.334Z,31.97
2022-10-19T19:51:55.396Z,33.57
2022-10-19T19:54:24.121Z,32.50
2022-10-19T19:56:54.493Z,33.13
2022-10-19T19:59:22.482Z,33.57
2022-10-19T20:01:50.592Z,33.70
2022-10-19T20:04:19.393Z,33.60
2022-10-19T20:06:47.398Z,34.47
2022-10-19T20:09:15.408Z,34.33
2022-10-19T20:11:43.411Z,34.60
2022-10-19T20:14:13.062Z,34.13
2022-10-19T20:16:41.536Z,33.40
2022-10-19T20:19:11.330Z,33.97
2022-10-19T20:21:39.849Z,33.80
2022-10-19T20:24:08.506Z,32.77
2022-10-19T20:26:36.612Z,33.17
2022-10-19T20:29:05.448Z,32.93
2022-10-19T20:31:39.553Z,32.87
2022-10-19T20:34:10.071Z,32.20
2022-10-19T20:36:38.173Z,31.63
2022-10-19T20:39:06.237Z,31.33
2022-10-19T20:41:34.258Z,31.87
2022-10-19T20:44:02.251Z,31.50
2022-10-19T20:46:31.347Z,31.40
2022-10-19T20:49:02.540Z,31.67
2022-10-19T20:51:32.651Z,32.50
2022-10-19T20:54:02.536Z,32.03
2022-10-19T20:56:32.929Z,32.13
2022-10-19T21:01:38.583Z,33.17
2022-10-19T21:04:10.033Z,33.07
2022-10-19T21:06:40.225Z,33.10
2022-10-19T21:09:08.735Z,32.43
2022-10-19T21:11:38.681Z,34.63
2022-10-19T21:14:09.450Z,33.90
2022-10-19T21:16:38.700Z,34.67
2022-10-19T21:19:11.700Z,34.40
2022-10-19T21:21:42.692Z,35.50
2022-10-19T21:24:14.299Z,35.63
2022-10-19T21:26:42.934Z,36.20
2022-10-19T21:29:12.801Z,37.00
2022-10-19T21:31:44.072Z,37.73
2022-10-19T21:34:17.754Z,38.73
2022-10-19T21:36:46.079Z,38.77
2022-10-19T21:39:14.168Z,39.47
2022-10-19T21:41:42.223Z,39.47
2022-10-19T21:44:10.522Z,40.57
2022-10-19T21:46:38.489Z,42.00
2022-10-19T21:49:06.479Z,42.00
2022-10-19T21:51:38.555Z,41.97
2022-10-19T21:54:08.803Z,40.77
2022-10-19T21:56:38.070Z,41.33
2022-10-19T21:59:06.125Z,40.70
2022-10-19T22:01:38.599Z,40.90
2022-10-19T22:04:12.187Z,38.33
2022-10-19T22:06:42.230Z,35.53
2022-10-19T22:09:12.972Z,32.10
2022-10-19T22:11:41.111Z,29.00
2022-10-19T22:14:09.113Z,26.70
2022-10-19T22:16:37.185Z,25.20
2022-10-19T22:19:06.733Z,21.10
2022-10-19T22:21:35.971Z,17.73
2022-10-19T22:24:07.759Z,15.77
2022-10-19T22:26:38.137Z,13.70
2022-10-19T22:29:08.111Z,12.27
2022-10-19T22:31:37.824Z,11.83
2022-10-19T22:34:08.274Z,11.27
2022-10-19T22:36:36.487Z,10.57
2022-10-19T22:39:06.737Z,10.00
2022-10-19T22:42:29.739Z,9.40
2022-10-19T22:45:16.139Z,9.53
2022-10-19T22:47:44.182Z,9.63
2022-10-19T22:50:12.209Z,9.13
2022-10-19T22:52:40.250Z,9.27
2022-10-19T22:55:10.109Z,8.47
2022-10-19T22:57:38.226Z,8.93
2022-10-19T23:00:07.318Z,8.67
2022-10-19T23:02:35.691Z,8.90
2022-10-19T23:05:03.968Z,9.10
2022-10-19T23:07:33.589Z,8.73
2022-10-19T23:10:01.943Z,9.10
2022-10-19T23:12:31.511Z,8.37
2022-10-19T23:14:59.530Z,8.80
2022-10-19T23:17:27.568Z,9.37
2022-10-19T23:19:55.752Z,8.90
2022-10-19T23:22:23.715Z,9.30
2022-10-19T23:24:51.761Z,9.30
2022-10-19T23:27:28.958Z,9.50
2022-10-19T23:29:58.451Z,9.23
2022-10-19T23:32:26.654Z,8.80
2022-10-19T23:34:54.666Z,9.10
2022-10-19T23:37:22.779Z,8.77
2022-10-19T23:39:50.862Z,8.80
2022-10-19T23:42:18.819Z,8.83
2022-10-19T23:44:46.781Z,9.30
2022-10-19T23:47:16.186Z,9.30
2022-10-19T23:49:44.209Z,9.77
2022-10-19T23:52:12.316Z,9.50
2022-10-19T23:54:40.256Z,9.23
2022-10-19T23:57:08.315Z,9.67
2022-10-19T23:59:36.312Z,9.63
